Time;durP1;ratioP1;P1;durP2;ratioP2;P2;SDS_P1;SDS_P2;PMS_P1;PMS_P2;Temp;Humidity;BMP_temperature;BMP_pressure;BME280_temperature;BME280_humidity;BME280_pressure;Samples;Min_cycle;Max_cycle;Signal;HPM_P1;HPM_P2
2022/06/15 00:01:39;;;;;;;7.25;1.10;;;;;;;;;;5347478;27;20304;-72
2022/06/15 00:04:11;;;;;;;4.80;0.95;;;;;;;;;;5346866;27;20249;-72
2022/06/15 00:06:42;;;;;;;5.35;1.40;;;;;;;;;;5347272;27;20015;-72
2022/06/15 00:09:13;;;;;;;4.20;0.90;;;;;;;;;;5347533;27;20019;-72
2022/06/15 00:11:45;;;;;;;4.32;1.00;;;;;;;;;;5346545;27;20025;-72
2022/06/15 00:14:18;;;;;;;5.82;1.10;;;;;;;;;;5347288;27;20031;-72
2022/06/15 00:16:49;;;;;;;5.18;0.93;;;;;;;;;;5347435;27;20023;-72
2022/06/15 00:19:21;;;;;;;6.63;1.10;;;;;;;;;;5345815;27;20023;-72
2022/06/15 00:21:52;;;;;;;5.22;1.08;;;;;;;;;;5347598;27;20023;-72
2022/06/15 00:24:23;;;;;;;4.90;1.60;;;;;;;;;;5346922;27;20012;-72
2022/06/15 00:26:54;;;;;;;5.15;0.80;;;;;;;;;;5346666;27;20023;-72
2022/06/15 00:29:26;;;;;;;3.38;1.25;;;;;;;;;;5346598;27;20016;-72
2022/06/15 00:31:57;;;;;;;3.70;1.50;;;;;;;;;;5346552;27;20462;-71
2022/06/15 00:34:28;;;;;;;3.83;1.33;;;;;;;;;;5345074;27;20593;-73
2022/06/15 00:37:01;;;;;;;5.55;1.08;;;;;;;;;;5347212;27;20596;-71
2022/06/15 00:39:33;;;;;;;6.22;1.60;;;;;;;;;;5345973;27;20514;-71
2022/06/15 00:42:04;;;;;;;4.72;1.50;;;;;;;;;;5346852;27;20098;-72
2022/06/15 00:44:37;;;;;;;4.55;1.45;;;;;;;;;;5346400;27;20027;-72
2022/06/15 00:47:11;;;;;;;6.07;1.40;;;;;;;;;;5345753;27;20019;-71
2022/06/15 00:49:42;;;;;;;7.28;1.60;;;;;;;;;;5346502;27;20509;-72
2022/06/15 00:52:15;;;;;;;2.50;1.27;;;;;;;;;;5346537;27;20123;-71
2022/06/15 00:54:49;;;;;;;5.30;1.58;;;;;;;;;;5345624;27;20299;-72
2022/06/15 00:57:20;;;;;;;5.38;1.40;;;;;;;;;;5346127;27;20083;-71
2022/06/15 00:59:53;;;;;;;6.43;1.42;;;;;;;;;;5346746;27;20012;-71
2022/06/15 01:02:25;;;;;;;4.60;1.42;;;;;;;;;;5345375;27;20019;-71
2022/06/15 01:05:01;;;;;;;7.22;2.42;;;;;;;;;;5346431;27;20023;-71
2022/06/15 01:07:38;;;;;;;5.22;1.92;;;;;;;;;;5345429;27;20050;-71
2022/06/15 01:10:27;;;;;;;7.38;1.67;;;;;;;;;;5346303;27;20075;-71
2022/06/15 01:13:09;;;;;;;9.63;1.75;;;;;;;;;;5346668;27;20178;-71
2022/06/15 01:15:55;;;;;;;5.07;1.40;;;;;;;;;;5345191;27;20015;-71
2022/06/15 01:18:26;;;;;;;4.15;1.38;;;;;;;;;;5345716;27;20034;-71
2022/06/15 01:21:11;;;;;;;4.93;1.67;;;;;;;;;;5345952;27;20044;-71
2022/06/15 01:24:05;;;;;;;4.97;1.58;;;;;;;;;;5344874;27;20256;-70
2022/06/15 01:26:55;;;;;;;6.13;1.70;;;;;;;;;;5345577;27;20055;-71
2022/06/15 01:29:28;;;;;;;5.47;1.83;;;;;;;;;;5344694;27;20019;-71
2022/06/15 01:32:20;;;;;;;4.97;2.10;;;;;;;;;;5345763;27;20034;-71
2022/06/15 01:35:06;;;;;;;6.30;1.42;;;;;;;;;;5327808;27;20023;-70
2022/06/15 01:37:47;;;;;;;3.00;1.23;;;;;;;;;;5344989;27;20027;-70
2022/06/15 01:40:38;;;;;;;7.75;1.92;;;;;;;;;;5345457;27;20462;-70
2022/06/15 01:43:13;;;;;;;8.73;2.05;;;;;;;;;;5344526;27;20031;-70
2022/06/15 01:45:45;;;;;;;7.25;2.47;;;;;;;;;;5345144;27;20015;-70
2022/06/15 01:48:17;;;;;;;8.52;2.40;;;;;;;;;;5345541;27;20440;-69
2022/06/15 01:50:52;;;;;;;6.53;2.25;;;;;;;;;;5344535;27;20084;-72
2022/06/15 01:53:31;;;;;;;7.07;1.75;;;;;;;;;;5345275;27;20022;-70
2022/06/15 01:56:02;;;;;;;;;;;;;;;;;;5345922;27;20076;-71
2022/06/15 01:58:34;;;;;;;4.50;1.58;;;;;;;;;;5344302;27;19904;-71
2022/06/15 02:01:05;;;;;;;4.75;2.25;;;;;;;;;;5345150;27;20470;-71
2022/06/15 02:03:45;;;;;;;7.82;2.10;;;;;;;;;;5345177;27;20011;-73
2022/06/15 02:06:22;;;;;;;3.58;2.10;;;;;;;;;;5345417;27;20782;-72
2022/06/15 02:08:56;;;;;;;3.95;1.63;;;;;;;;;;5345536;27;20466;-72
2022/06/15 02:11:35;;;;;;;6.03;1.88;;;;;;;;;;5343855;27;20039;-72
2022/06/15 02:14:06;;;;;;;7.15;1.58;;;;;;;;;;5344986;28;20011;-72
2022/06/15 02:16:43;;;;;;;7.60;2.20;;;;;;;;;;5345185;28;20038;-72
2022/06/15 02:19:17;;;;;;;7.68;2.08;;;;;;;;;;5343836;27;20348;-70
2022/06/15 02:21:50;;;;;;;9.13;1.52;;;;;;;;;;5345111;27;20498;-71
2022/06/15 02:24:21;;;;;;;6.93;1.58;;;;;;;;;;5344600;27;20431;-71
2022/06/15 02:26:52;;;;;;;5.95;1.90;;;;;;;;;;5344748;28;20031;-70
2022/06/15 02:29:25;;;;;;;6.43;1.75;;;;;;;;;;5344724;28;20029;-71
2022/06/15 02:31:57;;;;;;;3.92;1.67;;;;;;;;;;5344510;27;20027;-71
2022/06/15 02:34:28;;;;;;;5.63;2.40;;;;;;;;;;5344450;27;20007;-71
2022/06/15 02:36:59;;;;;;;3.90;2.03;;;;;;;;;;5345173;27;20474;-70
2022/06/15 02:39:31;;;;;;;5.53;1.75;;;;;;;;;;5343918;28;20614;-71
2022/06/15 02:42:20;;;;;;;6.47;2.20;;;;;;;;;;5345051;27;20023;-71
2022/06/15 02:44:53;;;;;;;6.97;2.28;;;;;;;;;;5345099;28;20035;-71
2022/06/15 02:47:26;;;;;;;3.83;2.15;;;;;;;;;;5343615;27;20019;-71
2022/06/15 02:49:58;;;;;;;6.43;2.17;;;;;;;;;;5344983;27;20015;-71
2022/06/15 02:52:31;;;;;;;8.38;2.17;;;;;;;;;;5344457;28;20084;-72
2022/06/15 02:55:03;;;;;;;5.55;1.58;;;;;;;;;;5343993;27;20019;-71
2022/06/15 02:57:51;;;;;;;9.18;2.35;;;;;;;;;;5348067;27;20377;-72
2022/06/15 03:00:22;;;;;;;6.47;2.35;;;;;;;;;;5347667;27;20030;-72
2022/06/15 03:02:54;;;;;;;6.07;2.45;;;;;;;;;;5349191;27;20469;-72
2022/06/15 03:05:25;;;;;;;5.40;2.30;;;;;;;;;;5348379;27;20019;-71
2022/06/15 03:07:56;;;;;;;7.63;2.15;;;;;;;;;;5348087;27;20015;-71
2022/06/15 03:10:29;;;;;;;5.85;1.73;;;;;;;;;;5348204;27;20019;-72
2022/06/15 03:13:00;;;;;;;7.93;1.80;;;;;;;;;;5348669;27;20038;-72
2022/06/15 03:15:31;;;;;;;6.43;1.85;;;;;;;;;;5347496;27;20462;-71
2022/06/15 03:18:02;;;;;;;7.78;2.17;;;;;;;;;;5348597;27;20042;-71
2022/06/15 03:20:34;;;;;;;6.13;2.05;;;;;;;;;;5347943;27;20296;-72
2022/06/15 03:23:06;;;;;;;8.52;2.05;;;;;;;;;;5347885;27;20125;-71
2022/06/15 03:25:38;;;;;;;6.78;2.00;;;;;;;;;;5348495;27;20137;-71
2022/06/15 03:28:10;;;;;;;6.90;2.17;;;;;;;;;;5347596;27;20102;-71
2022/06/15 03:30:41;;;;;;;9.35;2.45;;;;;;;;;;5348114;27;20076;-71
2022/06/15 03:33:12;;;;;;;7.20;2.42;;;;;;;;;;5348055;27;20090;-71
2022/06/15 03:35:44;;;;;;;6.07;2.20;;;;;;;;;;5347209;27;20267;-71
2022/06/15 03:38:15;;;;;;;6.57;2.05;;;;;;;;;;5347908;27;20098;-71
2022/06/15 03:40:47;;;;;;;11.02;2.17;;;;;;;;;;5347976;27;20136;-71
2022/06/15 03:43:19;;;;;;;7.72;2.15;;;;;;;;;;5346975;27;20027;-71
2022/06/15 03:45:50;;;;;;;5.80;2.28;;;;;;;;;;5348466;27;20090;-71
2022/06/15 03:48:21;;;;;;;8.90;2.42;;;;;;;;;;5347331;27;20031;-71
2022/06/15 03:50:52;;;;;;;7.35;2.20;;;;;;;;;;5347277;27;20462;-71
2022/06/15 03:53:24;;;;;;;8.40;2.17;;;;;;;;;;5347360;27;20029;-71
2022/06/15 03:55:55;;;;;;;7.70;1.88;;;;;;;;;;5348102;27;20409;-71
2022/06/15 03:58:26;;;;;;;5.28;2.45;;;;;;;;;;5346623;27;20023;-71
2022/06/15 04:00:57;;;;;;;6.15;2.38;;;;;;;;;;5348010;27;20019;-71
2022/06/15 04:03:29;;;;;;;5.88;2.40;;;;;;;;;;5346539;27;20121;-71
2022/06/15 04:06:00;;;;;;;8.90;3.38;;;;;;;;;;5347587;27;20023;-71
2022/06/15 04:08:35;;;;;;;9.48;2.40;;;;;;;;;;5346908;27;20012;-71
2022/06/15 04:14:06;;;;;;;6.97;2.35;;;;;;;;;;5347766;27;20109;-71
2022/06/15 04:16:37;;;;;;;3.47;2.05;;;;;;;;;;5347168;27;20015;-71
2022/06/15 04:19:11;;;;;;;6.83;2.57;;;;;;;;;;5346603;27;20110;-71
2022/06/15 04:21:42;;;;;;;7.60;2.50;;;;;;;;;;5347304;27;20827;-71
2022/06/15 04:24:14;;;;;;;6.78;2.90;;;;;;;;;;5347130;27;20099;-72
2022/06/15 04:26:46;;;;;;;7.20;2.60;;;;;;;;;;5346222;27;20019;-71
2022/06/15 04:29:18;;;;;;;6.93;2.28;;;;;;;;;;5346870;27;20113;-71
2022/06/15 04:31:49;;;;;;;7.88;2.63;;;;;;;;;;5346538;27;20125;-71
2022/06/15 04:34:20;;;;;;;9.37;2.57;;;;;;;;;;5346779;27;20016;-71
2022/06/15 04:36:52;;;;;;;7.47;2.65;;;;;;;;;;5347232;27;20304;-71
2022/06/15 04:39:23;;;;;;;13.45;2.40;;;;;;;;;;5345688;27;20012;-72
2022/06/15 04:41:54;;;;;;;7.53;2.60;;;;;;;;;;5346966;27;20419;-71
2022/06/15 04:44:25;;;;;;;6.30;2.55;;;;;;;;;;5346528;27;20683;-72
2022/06/15 04:46:58;;;;;;;7.77;2.20;;;;;;;;;;5346252;27;20023;-71
2022/06/15 04:49:29;;;;;;;9.13;3.22;;;;;;;;;;5346063;27;20283;-71
2022/06/15 04:52:00;;;;;;;6.32;2.55;;;;;;;;;;5346562;27;20400;-71
2022/06/15 04:54:32;;;;;;;7.33;2.93;;;;;;;;;;5345713;27;20016;-71
2022/06/15 04:57:03;;;;;;;5.53;2.75;;;;;;;;;;5346655;27;20271;-71
2022/06/15 04:59:34;;;;;;;5.05;2.13;;;;;;;;;;5345507;27;20011;-72
2022/06/15 05:02:05;;;;;;;11.20;2.53;;;;;;;;;;5346169;27;20030;-72
2022/06/15 05:04:36;;;;;;;8.73;3.22;;;;;;;;;;5346228;27;20339;-72
2022/06/15 05:07:08;;;;;;;7.30;2.88;;;;;;;;;;5345592;27;20106;-71
2022/06/15 05:09:39;;;;;;;6.90;2.70;;;;;;;;;;5346255;27;20348;-71
2022/06/15 05:12:10;;;;;;;10.32;3.67;;;;;;;;;;5345975;27;20031;-72
2022/06/15 05:14:42;;;;;;;10.38;3.40;;;;;;;;;;5345062;27;20064;-72
2022/06/15 05:17:17;;;;;;;9.95;3.35;;;;;;;;;;5345836;27;20470;-72
2022/06/15 05:19:48;;;;;;;9.13;3.03;;;;;;;;;;5345149;27;20414;-71
2022/06/15 05:22:19;;;;;;;7.80;3.08;;;;;;;;;;5344835;27;20406;-71
2022/06/15 05:24:50;;;;;;;7.07;3.42;;;;;;;;;;5345991;27;20022;-72
2022/06/15 05:27:22;;;;;;;7.18;2.80;;;;;;;;;;5345481;27;20462;-71
2022/06/15 05:29:53;;;;;;;10.23;4.05;;;;;;;;;;5345215;27;20011;-71
2022/06/15 05:32:24;;;;;;;10.10;3.80;;;;;;;;;;5345337;27;20027;-73
2022/06/15 05:34:55;;;;;;;9.65;3.53;;;;;;;;;;5344904;27;20021;-71
2022/06/15 05:37:28;;;;;;;10.35;3.33;;;;;;;;;;5344967;27;20412;-71
2022/06/15 05:39:59;;;;;;;13.43;3.70;;;;;;;;;;5345704;27;20014;-71
2022/06/15 05:42:30;;;;;;;10.13;4.22;;;;;;;;;;5344436;27;20466;-71
2022/06/15 05:45:02;;;;;;;7.85;3.83;;;;;;;;;;5345596;27;20019;-72
2022/06/15 05:47:33;;;;;;;9.98;4.00;;;;;;;;;;5345055;27;20015;-72
2022/06/15 05:50:05;;;;;;;10.55;4.38;;;;;;;;;;5344500;27;20025;-72
2022/06/15 05:52:36;;;;;;;7.70;4.10;;;;;;;;;;5344860;27;20122;-72
2022/06/15 05:55:08;;;;;;;11.93;4.43;;;;;;;;;;5345474;27;20102;-74
2022/06/15 05:57:39;;;;;;;16.38;4.22;;;;;;;;;;5344535;27;20265;-72
2022/06/15 06:00:11;;;;;;;8.27;3.77;;;;;;;;;;5345268;27;20088;-71
2022/06/15 06:02:42;;;;;;;10.65;4.15;;;;;;;;;;5344892;27;20297;-71
2022/06/15 06:05:13;;;;;;;6.37;3.77;;;;;;;;;;5344299;27;20088;-71
2022/06/15 06:07:45;;;;;;;11.55;4.28;;;;;;;;;;5345175;27;20340;-72
2022/06/15 06:10:16;;;;;;;7.45;4.30;;;;;;;;;;5344208;27;20310;-72
2022/06/15 06:12:47;;;;;;;17.63;4.07;;;;;;;;;;5345013;27;20058;-72
2022/06/15 06:15:18;;;;;;;9.18;4.60;;;;;;;;;;5344539;27;20026;-72
2022/06/15 06:17:50;;;;;;;9.27;3.60;;;;;;;;;;5344522;27;20106;-72
2022/06/15 06:20:21;;;;;;;8.43;3.75;;;;;;;;;;5344506;28;20288;-72
2022/06/15 06:22:52;;;;;;;9.57;3.75;;;;;;;;;;5345135;27;20261;-72
2022/06/15 06:25:23;;;;;;;8.10;3.65;;;;;;;;;;5343723;27;20454;-73
2022/06/15 06:27:54;;;;;;;7.83;3.30;;;;;;;;;;5345192;28;20755;-72
2022/06/15 06:30:26;;;;;;;12.20;3.90;;;;;;;;;;5346310;27;20287;-72
2022/06/15 06:32:57;;;;;;;13.40;3.60;;;;;;;;;;5348903;27;20027;-72
2022/06/15 06:35:28;;;;;;;10.50;4.28;;;;;;;;;;5349076;27;20487;-72
2022/06/15 06:37:59;;;;;;;10.35;3.90;;;;;;;;;;5349247;27;20019;-72
2022/06/15 06:40:30;;;;;;;10.70;3.90;;;;;;;;;;5348253;27;20412;-72
2022/06/15 06:43:02;;;;;;;7.72;3.47;;;;;;;;;;5348873;27;20277;-72
2022/06/15 06:45:33;;;;;;;10.27;3.40;;;;;;;;;;5348488;27;20442;-72
2022/06/15 06:48:04;;;;;;;10.90;3.13;;;;;;;;;;5349100;27;20064;-72
2022/06/15 06:50:36;;;;;;;8.88;3.33;;;;;;;;;;5348313;27;20267;-71
2022/06/15 06:53:08;;;;;;;8.50;2.85;;;;;;;;;;5347857;27;20026;-70
2022/06/15 06:55:40;;;;;;;8.40;3.35;;;;;;;;;;5348646;27;20019;-70
2022/06/15 06:58:11;;;;;;;8.27;3.00;;;;;;;;;;5348261;27;20023;-70
2022/06/15 07:00:42;;;;;;;8.97;3.87;;;;;;;;;;5347628;27;20026;-70
2022/06/15 07:03:13;;;;;;;4.63;2.65;;;;;;;;;;5348030;27;20802;-70
2022/06/15 07:05:45;;;;;;;7.17;3.30;;;;;;;;;;5348277;27;20809;-70
2022/06/15 07:08:16;;;;;;;5.35;2.58;;;;;;;;;;5347726;27;20679;-70
2022/06/15 07:10:47;;;;;;;5.88;2.92;;;;;;;;;;5348223;27;20055;-68
2022/06/15 07:13:18;;;;;;;11.57;2.87;;;;;;;;;;5347106;27;20457;-68
2022/06/15 07:15:50;;;;;;;7.77;2.53;;;;;;;;;;5348541;27;20627;-70
2022/06/15 07:18:21;;;;;;;5.55;2.58;;;;;;;;;;5347648;27;20410;-71
2022/06/15 07:20:52;;;;;;;7.43;3.17;;;;;;;;;;5347217;27;20058;-70
2022/06/15 07:23:23;;;;;;;5.50;2.67;;;;;;;;;;5347749;27;20023;-69
2022/06/15 07:25:55;;;;;;;7.85;3.42;;;;;;;;;;5348664;27;20277;-69
2022/06/15 07:28:26;;;;;;;9.20;3.08;;;;;;;;;;5346997;27;20020;-70
2022/06/15 07:30:58;;;;;;;12.27;3.28;;;;;;;;;;5348408;27;20027;-72
2022/06/15 07:33:29;;;;;;;8.07;3.58;;;;;;;;;;5347637;27;20015;-70
2022/06/15 07:36:00;;;;;;;8.20;2.85;;;;;;;;;;5346868;27;20043;-69
2022/06/15 07:38:32;;;;;;;5.70;2.35;;;;;;;;;;5347478;27;20018;-73
2022/06/15 07:41:03;;;;;;;9.35;2.55;;;;;;;;;;5347845;27;20030;-72
2022/06/15 07:43:35;;;;;;;6.88;2.20;;;;;;;;;;5346663;27;20333;-70
2022/06/15 07:46:07;;;;;;;8.30;2.60;;;;;;;;;;5347694;27;20108;-70
2022/06/15 07:51:28;;;;;;;5.45;1.70;;;;;;;;;;5347653;27;20031;-71
2022/06/15 07:54:00;;;;;;;6.60;1.92;;;;;;;;;;5348245;27;20019;-71
2022/06/15 07:56:32;;;;;;;10.07;2.63;;;;;;;;;;5345793;27;20026;-71
2022/06/15 07:59:03;;;;;;;9.07;2.38;;;;;;;;;;5346646;27;20015;-71
2022/06/15 08:01:35;;;;;;;7.32;2.38;;;;;;;;;;5346240;27;20408;-70
2022/06/15 08:04:06;;;;;;;6.43;2.90;;;;;;;;;;5346103;27;20019;-71
2022/06/15 08:06:38;;;;;;;11.00;2.50;;;;;;;;;;5347403;27;20454;-71
2022/06/15 08:09:10;;;;;;;7.68;1.98;;;;;;;;;;5347349;27;20019;-71
2022/06/15 08:12:11;;;;;;;9.30;2.53;;;;;;;;;;5346506;27;20549;-71
2022/06/15 08:14:35;;;;;;;8.38;2.78;;;;;;;;;;5346953;27;20131;-70
2022/06/15 08:17:08;;;;;;;9.57;2.50;;;;;;;;;;5346504;27;20015;-71
2022/06/15 08:19:42;;;;;;;7.43;2.92;;;;;;;;;;5346929;27;20092;-71
2022/06/15 08:22:13;;;;;;;4.85;1.80;;;;;;;;;;5347091;27;20015;-71
2022/06/15 08:24:45;;;;;;;5.28;1.42;;;;;;;;;;5346339;27;20472;-71
2022/06/15 08:27:17;;;;;;;6.35;2.00;;;;;;;;;;5347321;27;20031;-72
2022/06/15 08:29:49;;;;;;;6.50;1.50;;;;;;;;;;5347013;27;20019;-71
2022/06/15 08:32:20;;;;;;;7.75;2.40;;;;;;;;;;5345777;27;20039;-71
2022/06/15 08:34:52;;;;;;;7.05;1.50;;;;;;;;;;5347044;27;20060;-71
2022/06/15 08:37:23;;;;;;;4.72;1.52;;;;;;;;;;5346347;27;20072;-71
2022/06/15 08:39:54;;;;;;;7.63;1.30;;;;;;;;;;5346352;27;20018;-72
2022/06/15 08:42:44;;;;;;;6.13;1.10;;;;;;;;;;5346507;27;20323;-72
2022/06/15 08:45:21;;;;;;;5.60;1.52;;;;;;;;;;5345820;27;20494;-72
2022/06/15 08:48:01;;;;;;;5.47;1.00;;;;;;;;;;5346832;27;20031;-74
2022/06/15 08:50:33;;;;;;;9.27;1.35;;;;;;;;;;5346167;27;20043;-73
2022/06/15 08:53:13;;;;;;;7.93;1.20;;;;;;;;;;5345380;27;20055;-72
2022/06/15 08:55:44;;;;;;;6.38;1.10;;;;;;;;;;5346167;27;20412;-73
2022/06/15 08:58:20;;;;;;;6.13;1.30;;;;;;;;;;5346296;27;20016;-74
2022/06/15 09:00:54;;;;;;;5.72;0.98;;;;;;;;;;5345989;27;20629;-74
2022/06/15 09:03:44;;;;;;;5.25;1.40;;;;;;;;;;5345925;27;20841;-74
2022/06/15 09:06:34;;;;;;;5.57;1.45;;;;;;;;;;5345480;27;20031;-74
2022/06/15 09:09:25;;;;;;;8.35;1.40;;;;;;;;;;5345975;27;20015;-73
2022/06/15 09:15:01;;;;;;;6.82;1.08;;;;;;;;;;5345103;27;20047;-72
2022/06/15 09:17:33;;;;;;;4.83;0.90;;;;;;;;;;5344543;27;20019;-72
2022/06/15 09:20:08;;;;;;;5.72;0.90;;;;;;;;;;5344725;27;20050;-73
2022/06/15 09:22:42;;;;;;;7.63;1.38;;;;;;;;;;5345502;27;20022;-73
2022/06/15 09:25:16;;;;;;;6.82;1.38;;;;;;;;;;5345196;27;20534;-73
2022/06/15 09:27:51;;;;;;;7.07;1.55;;;;;;;;;;5344686;27;20529;-72
2022/06/15 09:30:24;;;;;;;7.05;1.52;;;;;;;;;;5345007;27;20057;-71
2022/06/15 09:33:01;;;;;;;8.18;1.83;;;;;;;;;;5345372;27;20035;-71
2022/06/15 09:35:35;;;;;;;6.00;1.27;;;;;;;;;;5343820;27;20019;-72
2022/06/15 09:38:10;;;;;;;5.60;0.93;;;;;;;;;;5345398;27;20465;-74
2022/06/15 09:40:49;;;;;;;4.93;1.23;;;;;;;;;;5345262;27;20523;-71
2022/06/15 09:43:36;;;;;;;5.25;1.00;;;;;;;;;;5344131;27;20362;-72
2022/06/15 09:46:23;;;;;;;4.82;1.30;;;;;;;;;;5345101;27;20080;-71
2022/06/15 09:49:06;;;;;;;6.53;1.27;;;;;;;;;;5344917;27;20027;-71
2022/06/15 09:51:37;;;;;;;6.53;1.20;;;;;;;;;;5345212;27;20034;-72
2022/06/15 09:54:31;;;;;;;7.28;1.00;;;;;;;;;;5345024;27;20023;-71
2022/06/15 09:57:02;;;;;;;5.90;1.30;;;;;;;;;;5344755;27;20351;-73
2022/06/15 09:59:33;;;;;;;5.18;1.38;;;;;;;;;;5345188;27;20151;-72
2022/06/15 10:02:10;;;;;;;7.70;1.60;;;;;;;;;;5344489;27;20015;-71
2022/06/15 10:04:43;;;;;;;5.50;1.40;;;;;;;;;;5344519;27;20620;-72
2022/06/15 10:07:18;;;;;;;7.85;1.55;;;;;;;;;;5344948;27;20144;-71
2022/06/15 10:09:51;;;;;;;8.10;1.60;;;;;;;;;;5344826;27;20103;-71
2022/06/15 10:15:16;;;;;;;6.03;1.35;;;;;;;;;;5345332;27;20514;-71
2022/06/15 10:17:50;;;;;;;5.72;1.02;;;;;;;;;;5344357;28;20150;-72
2022/06/15 10:20:30;;;;;;;4.35;1.02;;;;;;;;;;5344415;28;20046;-73
2022/06/15 10:23:04;;;;;;;7.07;1.40;;;;;;;;;;5345255;27;20437;-74
2022/06/15 10:25:36;;;;;;;8.98;1.60;;;;;;;;;;5345020;27;20113;-74
2022/06/15 10:28:20;;;;;;;9.77;1.55;;;;;;;;;;5345203;28;20034;-74
2022/06/15 10:30:55;;;;;;;7.10;1.55;;;;;;;;;;5344583;28;20030;-75
2022/06/15 10:33:38;;;;;;;7.72;1.00;;;;;;;;;;5344567;27;20076;-72
2022/06/15 10:36:32;;;;;;;7.35;1.00;;;;;;;;;;5344557;28;20122;-71
2022/06/15 10:39:05;;;;;;;6.63;1.38;;;;;;;;;;5330455;28;20494;-71
2022/06/15 10:41:45;;;;;;;7.15;1.45;;;;;;;;;;5344645;28;20027;-72
2022/06/15 10:44:31;;;;;;;7.70;2.03;;;;;;;;;;5343588;27;20465;-71
2022/06/15 10:47:05;;;;;;;9.02;1.10;;;;;;;;;;5344866;28;20015;-72
2022/06/15 10:49:42;;;;;;;6.30;1.23;;;;;;;;;;5344705;27;20026;-72
2022/06/15 10:52:25;;;;;;;9.18;1.58;;;;;;;;;;5343486;27;20038;-72
2022/06/15 11:03:46;;;;;;;11.50;1.50;;;;;;;;;;5344812;28;20031;-73
2022/06/15 11:06:17;;;;;;;10.02;2.38;;;;;;;;;;5343789;28;20020;-73
2022/06/15 11:08:48;;;;;;;5.63;1.07;;;;;;;;;;5344310;28;20122;-72
2022/06/15 11:11:24;;;;;;;6.80;1.20;;;;;;;;;;5327048;28;20085;-72
2022/06/15 11:13:57;;;;;;;9.05;1.88;;;;;;;;;;5322678;28;20277;-72
2022/06/15 11:19:19;;;;;;;6.38;1.35;;;;;;;;;;5326458;28;20024;-73
2022/06/15 11:21:59;;;;;;;8.35;1.30;;;;;;;;;;5326696;28;20020;-74
2022/06/15 11:24:34;;;;;;;8.40;1.67;;;;;;;;;;5326476;28;20030;-72
2022/06/15 11:27:25;;;;;;;10.98;2.10;;;;;;;;;;5326080;28;20007;-73
2022/06/15 11:29:56;;;;;;;7.53;1.27;;;;;;;;;;5326293;28;20444;-72
2022/06/15 11:32:34;;;;;;;7.60;1.33;;;;;;;;;;5326219;28;20028;-73
2022/06/15 11:35:08;;;;;;;7.93;1.50;;;;;;;;;;5326062;28;20269;-72
2022/06/15 11:37:45;;;;;;;6.10;1.35;;;;;;;;;;5326516;28;20016;-73
2022/06/15 11:40:26;;;;;;;5.82;1.23;;;;;;;;;;5326001;28;20037;-75
2022/06/15 11:42:58;;;;;;;6.50;1.60;;;;;;;;;;5326637;28;20413;-75
2022/06/15 11:45:39;;;;;;;8.63;1.92;;;;;;;;;;5326213;28;20073;-73
2022/06/15 11:48:10;;;;;;;6.53;1.38;;;;;;;;;;5325359;28;20020;-72
2022/06/15 11:50:46;;;;;;;7.03;1.00;;;;;;;;;;5326109;28;20065;-71
2022/06/15 11:53:20;;;;;;;6.68;1.20;;;;;;;;;;5326194;28;20027;-72
2022/06/15 11:56:02;;;;;;;6.57;1.30;;;;;;;;;;5325698;28;20047;-72
2022/06/15 11:58:35;;;;;;;5.20;1.08;;;;;;;;;;5325921;28;20115;-72
2022/06/15 12:01:25;;;;;;;9.68;1.48;;;;;;;;;;5325732;28;20012;-72
2022/06/15 12:04:02;;;;;;;8.23;1.48;;;;;;;;;;5325583;28;20046;-71
2022/06/15 12:06:40;;;;;;;6.90;0.90;;;;;;;;;;5325790;28;20023;-72
2022/06/15 12:09:17;;;;;;;6.18;1.00;;;;;;;;;;5325159;28;20011;-72
2022/06/15 12:15:09;;;;;;;10.20;1.17;;;;;;;;;;5326244;28;20024;-71
2022/06/15 12:17:49;;;;;;;8.60;1.13;;;;;;;;;;5324714;28;20023;-72
2022/06/15 12:20:32;;;;;;;6.97;0.90;;;;;;;;;;5325084;28;20071;-72
2022/06/15 12:23:08;;;;;;;3.90;1.45;;;;;;;;;;5324976;28;20016;-73
2022/06/15 12:25:58;;;;;;;8.13;0.90;;;;;;;;;;5325367;28;20020;-74
2022/06/15 12:28:40;;;;;;;8.32;1.38;;;;;;;;;;5324910;28;20047;-73
2022/06/15 12:31:18;;;;;;;6.00;1.20;;;;;;;;;;5324807;28;20359;-73
2022/06/15 12:33:49;;;;;;;5.45;0.90;;;;;;;;;;5325655;28;20352;-74
2022/06/15 12:36:24;;;;;;;5.75;0.90;;;;;;;;;;5325051;28;20032;-73
2022/06/15 12:38:58;;;;;;;6.28;0.80;;;;;;;;;;5324589;28;20390;-73
2022/06/15 12:44:34;;;;;;;8.52;0.90;;;;;;;;;;5324321;28;20023;-72
2022/06/15 12:47:09;;;;;;;11.43;1.10;;;;;;;;;;5324723;28;20117;-73
2022/06/15 12:49:56;;;;;;;8.93;1.23;;;;;;;;;;5325287;28;20016;-73
2022/06/15 12:52:45;;;;;;;7.65;0.90;;;;;;;;;;5323898;28;20023;-73
2022/06/15 12:55:36;;;;;;;7.40;0.88;;;;;;;;;;5324791;28;20019;-73
2022/06/15 12:58:07;;;;;;;4.97;0.80;;;;;;;;;;5324237;28;20024;-72
2022/06/15 13:00:47;;;;;;;8.70;0.80;;;;;;;;;;5324758;28;20019;-73
2022/06/15 13:03:31;;;;;;;8.43;1.30;;;;;;;;;;5325759;27;20297;-72
2022/06/15 13:06:18;;;;;;;4.70;0.70;;;;;;;;;;5337062;27;20023;-73
2022/06/15 13:09:09;;;;;;;3.45;0.70;;;;;;;;;;5324295;28;20369;-73
2022/06/15 13:11:43;;;;;;;6.50;1.20;;;;;;;;;;5324268;28;20082;-73
2022/06/15 13:14:17;;;;;;;6.15;0.82;;;;;;;;;;5326892;27;20114;-73
2022/06/15 13:17:09;;;;;;;5.60;0.90;;;;;;;;;;5328324;27;20075;-73
2022/06/15 13:19:41;;;;;;;7.55;1.08;;;;;;;;;;5343594;27;20590;-73
2022/06/15 13:22:15;;;;;;;6.57;1.45;;;;;;;;;;5324309;28;20016;-73
2022/06/15 13:24:56;;;;;;;8.20;0.80;;;;;;;;;;5324340;28;20378;-74
2022/06/15 13:27:30;;;;;;;7.88;0.70;;;;;;;;;;5326307;27;20047;-72
2022/06/15 13:30:19;;;;;;;6.80;0.80;;;;;;;;;;5324101;27;20034;-72
2022/06/15 13:32:50;;;;;;;6.13;0.70;;;;;;;;;;5324202;28;20035;-71
2022/06/15 13:35:23;;;;;;;6.90;1.27;;;;;;;;;;5323196;28;20099;-73
2022/06/15 13:38:03;;;;;;;3.22;0.75;;;;;;;;;;5324686;27;20023;-73
2022/06/15 13:40:53;;;;;;;8.77;0.95;;;;;;;;;;5326525;27;20106;-72
2022/06/15 13:43:25;;;;;;;9.65;1.02;;;;;;;;;;5340954;27;20015;-72
2022/06/15 13:46:18;;;;;;;6.65;1.15;;;;;;;;;;5324489;28;20102;-72
2022/06/15 13:48:52;;;;;;;4.55;0.60;;;;;;;;;;5336025;27;20382;-72
2022/06/15 13:51:31;;;;;;;5.38;0.73;;;;;;;;;;5327746;27;20053;-72
2022/06/15 13:54:09;;;;;;;7.40;0.90;;;;;;;;;;5338343;27;20381;-73
2022/06/15 13:56:46;;;;;;;5.57;0.60;;;;;;;;;;5341528;27;20054;-72
2022/06/15 13:59:25;;;;;;;6.50;0.73;;;;;;;;;;5329152;27;20050;-73
2022/06/15 14:02:15;;;;;;;5.60;0.77;;;;;;;;;;5344167;27;20019;-75
2022/06/15 14:04:46;;;;;;;6.65;0.80;;;;;;;;;;5345181;27;20019;-76
2022/06/15 14:07:17;;;;;;;3.83;0.80;;;;;;;;;;5345075;27;20343;-75
2022/06/15 14:10:07;;;;;;;4.75;0.68;;;;;;;;;;5344086;27;20021;-75
2022/06/15 14:13:08;;;;;;;6.50;0.90;;;;;;;;;;5344686;27;20038;-72
2022/06/15 14:15:56;;;;;;;5.05;0.70;;;;;;;;;;5322357;27;20529;-72
2022/06/15 14:18:36;;;;;;;4.93;0.70;;;;;;;;;;5344519;27;20027;-72
2022/06/15 14:21:19;;;;;;;6.07;0.57;;;;;;;;;;5344420;28;20035;-72
2022/06/15 14:23:52;;;;;;;4.35;0.60;;;;;;;;;;5331192;28;20492;-72
2022/06/15 14:26:28;;;;;;;4.22;0.63;;;;;;;;;;5344125;28;20346;-72
2022/06/15 14:29:05;;;;;;;4.53;0.90;;;;;;;;;;5344884;28;20513;-72
2022/06/15 14:31:36;;;;;;;4.30;0.80;;;;;;;;;;5343442;28;20030;-72
2022/06/15 14:34:09;;;;;;;5.13;0.85;;;;;;;;;;5344914;27;20011;-71
2022/06/15 14:36:54;;;;;;;8.63;0.90;;;;;;;;;;5343910;27;20095;-72
2022/06/15 14:39:26;;;;;;;7.05;0.68;;;;;;;;;;5343113;28;20038;-72
2022/06/15 14:42:01;;;;;;;5.57;0.77;;;;;;;;;;5344948;28;20374;-72
2022/06/15 14:44:33;;;;;;;6.35;0.93;;;;;;;;;;5343767;28;20026;-72
2022/06/15 14:47:05;;;;;;;6.10;0.70;;;;;;;;;;5344018;28;20386;-72
2022/06/15 14:49:37;;;;;;;7.65;0.70;;;;;;;;;;5344298;28;20011;-72
2022/06/15 14:52:17;;;;;;;8.57;0.85;;;;;;;;;;5344754;27;20051;-72
2022/06/15 14:54:53;;;;;;;8.75;0.75;;;;;;;;;;5348927;27;20072;-72
2022/06/15 14:57:28;;;;;;;7.80;0.63;;;;;;;;;;5347640;27;20054;-72
2022/06/15 15:00:01;;;;;;;6.68;0.70;;;;;;;;;;5349093;27;20480;-72
2022/06/15 15:02:59;;;;;;;3.47;0.70;;;;;;;;;;5349009;27;20526;-72
2022/06/15 15:05:32;;;;;;;5.15;0.60;;;;;;;;;;5342268;27;20413;-72
2022/06/15 15:08:22;;;;;;;5.97;0.82;;;;;;;;;;5348590;27;20018;-72
2022/06/15 15:11:16;;;;;;;5.50;0.60;;;;;;;;;;5348519;27;20023;-72
2022/06/15 15:14:05;;;;;;;4.60;0.68;;;;;;;;;;5345766;27;20424;-72
2022/06/15 15:16:38;;;;;;;3.95;0.60;;;;;;;;;;5348474;27;20058;-72
2022/06/15 15:19:11;;;;;;;3.58;0.68;;;;;;;;;;5347209;27;20019;-71
2022/06/15 15:21:44;;;;;;;3.83;0.70;;;;;;;;;;5348446;27;20030;-72
2022/06/15 15:24:15;;;;;;;5.72;0.80;;;;;;;;;;5348033;27;20026;-72
2022/06/15 15:26:57;;;;;;;5.53;0.70;;;;;;;;;;5347659;27;20019;-72
2022/06/15 15:35:18;;;;;;;3.22;0.52;;;;;;;;;;5348359;27;20395;-72
2022/06/15 15:37:49;;;;;;;5.68;0.80;;;;;;;;;;5348065;27;20030;-72
2022/06/15 15:40:23;;;;;;;4.20;0.77;;;;;;;;;;5346715;27;20048;-72
2022/06/15 15:42:54;;;;;;;4.22;0.60;;;;;;;;;;5348225;27;20019;-71
2022/06/15 15:45:25;;;;;;;5.63;0.70;;;;;;;;;;5347657;27;20074;-72
2022/06/15 15:47:57;;;;;;;2.50;0.60;;;;;;;;;;5347408;27;20022;-72
2022/06/15 15:50:29;;;;;;;5.32;0.80;;;;;;;;;;5347242;27;20529;-72
2022/06/15 15:53:00;;;;;;;6.55;0.70;;;;;;;;;;5347784;27;20397;-72
2022/06/15 15:55:32;;;;;;;4.93;0.70;;;;;;;;;;5346902;27;20016;-72
2022/06/15 15:58:04;;;;;;;5.03;0.55;;;;;;;;;;5347808;27;20022;-71
2022/06/15 16:00:35;;;;;;;6.70;0.57;;;;;;;;;;5347293;27;20042;-71
2022/06/15 16:03:07;;;;;;;3.67;0.60;;;;;;;;;;5346570;27;20265;-71
2022/06/15 16:05:39;;;;;;;4.97;0.70;;;;;;;;;;5347480;27;20033;-71